sensor_id;sensor_type;location;lat;lon;timestamp;temperature;humidity
14411;DHT22;7290;50.854;4.354;2023-04-25T00:01:46;10.50;99.90
14411;DHT22;7290;50.854;4.354;2023-04-25T00:04:12;10.60;99.90
14411;DHT22;7290;50.854;4.354;2023-04-25T00:06:39;10.50;99.90
14411;DHT22;7290;50.854;4.354;2023-04-25T00:09:06;10.50;99.90
14411;DHT22;7290;50.854;4.354;2023-04-25T00:11:34;10.50;99.90
14411;DHT22;7290;50.854;4.354;2023-04-25T00:14:00;10.40;99.90
14411;DHT22;7290;50.854;4.354;2023-04-25T00:16:27;10.40;99.90
14411;DHT22;7290;50.854;4.354;2023-04-25T00:18:54;10.40;99.90
14411;DHT22;7290;50.854;4.354;2023-04-25T00:21:20;10.50;99.90
14411;DHT22;7290;50.854;4.354;2023-04-25T00:23:48;10.50;99.90
14411;DHT22;7290;50.854;4.354;2023-04-25T00:26:14;10.50;99.90
14411;DHT22;7290;50.854;4.354;2023-04-25T00:28:40;10.50;99.90
14411;DHT22;7290;50.854;4.354;2023-04-25T00:31:06;10.60;99.90
14411;DHT22;7290;50.854;4.354;2023-04-25T00:33:32;10.60;99.90
14411;DHT22;7290;50.854;4.354;2023-04-25T00:35:58;10.50;99.90
14411;DHT22;7290;50.854;4.354;2023-04-25T00:38:24;10.30;99.90
14411;DHT22;7290;50.854;4.354;2023-04-25T00:40:51;10.20;99.90
14411;DHT22;7290;50.854;4.354;2023-04-25T00:43:18;10.30;99.90
14411;DHT22;7290;50.854;4.354;2023-04-25T00:45:47;10.40;99.90
14411;DHT22;7290;50.854;4.354;2023-04-25T00:48:14;10.30;99.90
14411;DHT22;7290;50.854;4.354;2023-04-25T00:50:40;10.40;99.90
14411;DHT22;7290;50.854;4.354;2023-04-25T00:53:06;10.30;99.90
14411;DHT22;7290;50.854;4.354;2023-04-25T00:55:33;10.40;99.90
14411;DHT22;7290;50.854;4.354;2023-04-25T00:58:00;10.40;99.90
14411;DHT22;7290;50.854;4.354;2023-04-25T01:00:26;10.50;99.90
14411;DHT22;7290;50.854;4.354;2023-04-25T01:02:53;10.40;99.90
14411;DHT22;7290;50.854;4.354;2023-04-25T01:05:19;10.40;99.90
14411;DHT22;7290;50.854;4.354;2023-04-25T01:07:45;10.40;99.90
14411;DHT22;7290;50.854;4.354;2023-04-25T01:10:12;10.40;99.90
14411;DHT22;7290;50.854;4.354;2023-04-25T01:12:38;10.40;99.90
14411;DHT22;7290;50.854;4.354;2023-04-25T01:15:06;10.40;99.90
14411;DHT22;7290;50.854;4.354;2023-04-25T01:17:34;10.20;99.90
14411;DHT22;7290;50.854;4.354;2023-04-25T01:20:03;10.00;99.90
14411;DHT22;7290;50.854;4.354;2023-04-25T01:22:30;10.00;99.90
14411;DHT22;7290;50.854;4.354;2023-04-25T01:24:57;9.90;99.90
14411;DHT22;7290;50.854;4.354;2023-04-25T01:27:24;10.00;99.90
14411;DHT22;7290;50.854;4.354;2023-04-25T01:29:51;10.00;99.90
14411;DHT22;7290;50.854;4.354;2023-04-25T01:32:17;10.00;99.90
14411;DHT22;7290;50.854;4.354;2023-04-25T01:34:43;10.00;99.90
14411;DHT22;7290;50.854;4.354;2023-04-25T01:37:10;10.00;99.90
14411;DHT22;7290;50.854;4.354;2023-04-25T01:39:36;10.00;99.90
14411;DHT22;7290;50.854;4.354;2023-04-25T01:42:02;10.00;99.90
14411;DHT22;7290;50.854;4.354;2023-04-25T01:44:28;9.90;99.90
14411;DHT22;7290;50.854;4.354;2023-04-25T01:46:55;9.80;99.90
14411;DHT22;7290;50.854;4.354;2023-04-25T01:49:21;9.80;99.90
14411;DHT22;7290;50.854;4.354;2023-04-25T01:51:47;9.80;99.90
14411;DHT22;7290;50.854;4.354;2023-04-25T01:54:13;9.80;99.90
14411;DHT22;7290;50.854;4.354;2023-04-25T01:56:40;9.80;99.90
14411;DHT22;7290;50.854;4.354;2023-04-25T01:59:06;9.80;99.90
14411;DHT22;7290;50.854;4.354;2023-04-25T02:01:32;9.70;99.90
14411;DHT22;7290;50.854;4.354;2023-04-25T02:03:58;9.70;99.90
14411;DHT22;7290;50.854;4.354;2023-04-25T02:06:24;9.80;99.90
14411;DHT22;7290;50.854;4.354;2023-04-25T02:08:50;9.90;99.90
14411;DHT22;7290;50.854;4.354;2023-04-25T02:11:16;9.90;99.90
14411;DHT22;7290;50.854;4.354;2023-04-25T02:13:43;9.80;99.90
14411;DHT22;7290;50.854;4.354;2023-04-25T02:16:09;9.70;99.90
14411;DHT22;7290;50.854;4.354;2023-04-25T02:18:35;9.80;99.90
14411;DHT22;7290;50.854;4.354;2023-04-25T02:21:03;9.80;99.90
14411;DHT22;7290;50.854;4.354;2023-04-25T02:23:29;9.80;99.90
14411;DHT22;7290;50.854;4.354;2023-04-25T02:25:56;9.80;99.90
14411;DHT22;7290;50.854;4.354;2023-04-25T02:28:23;9.80;99.90
14411;DHT22;7290;50.854;4.354;2023-04-25T02:30:50;9.70;99.90
14411;DHT22;7290;50.854;4.354;2023-04-25T02:33:16;9.60;99.90
14411;DHT22;7290;50.854;4.354;2023-04-25T02:35:42;9.60;99.90
14411;DHT22;7290;50.854;4.354;2023-04-25T02:38:08;9.60;99.90
14411;DHT22;7290;50.854;4.354;2023-04-25T02:40:34;9.60;99.90
14411;DHT22;7290;50.854;4.354;2023-04-25T02:43:00;9.50;99.90
14411;DHT22;7290;50.854;4.354;2023-04-25T02:45:27;9.60;99.90
14411;DHT22;7290;50.854;4.354;2023-04-25T02:47:53;9.70;99.90
14411;DHT22;7290;50.854;4.354;2023-04-25T02:50:19;9.70;99.90
14411;DHT22;7290;50.854;4.354;2023-04-25T02:52:45;9.50;99.90
14411;DHT22;7290;50.854;4.354;2023-04-25T02:55:12;9.50;99.90
14411;DHT22;7290;50.854;4.354;2023-04-25T02:57:38;9.40;99.90
14411;DHT22;7290;50.854;4.354;2023-04-25T03:00:05;9.50;99.90
14411;DHT22;7290;50.854;4.354;2023-04-25T03:02:32;9.60;99.90
14411;DHT22;7290;50.854;4.354;2023-04-25T03:04:59;9.60;99.90
14411;DHT22;7290;50.854;4.354;2023-04-25T03:07:25;9.60;99.90
14411;DHT22;7290;50.854;4.354;2023-04-25T03:09:51;9.60;99.90
14411;DHT22;7290;50.854;4.354;2023-04-25T03:12:17;9.50;99.90
14411;DHT22;7290;50.854;4.354;2023-04-25T03:14:43;9.70;99.90
14411;DHT22;7290;50.854;4.354;2023-04-25T03:17:10;9.50;99.90
14411;DHT22;7290;50.854;4.354;2023-04-25T03:19:35;9.40;99.90
14411;DHT22;7290;50.854;4.354;2023-04-25T03:22:02;9.50;99.90
14411;DHT22;7290;50.854;4.354;2023-04-25T03:24:28;9.40;99.90
14411;DHT22;7290;50.854;4.354;2023-04-25T03:26:54;9.40;99.90
14411;DHT22;7290;50.854;4.354;2023-04-25T03:29:20;9.50;99.90
14411;DHT22;7290;50.854;4.354;2023-04-25T03:31:49;9.50;99.90
14411;DHT22;7290;50.854;4.354;2023-04-25T03:34:15;9.50;99.90
14411;DHT22;7290;50.854;4.354;2023-04-25T03:36:41;9.40;99.90
14411;DHT22;7290;50.854;4.354;2023-04-25T03:39:08;9.40;99.90
14411;DHT22;7290;50.854;4.354;2023-04-25T03:41:34;9.30;99.90
14411;DHT22;7290;50.854;4.354;2023-04-25T03:44:00;9.20;99.90
14411;DHT22;7290;50.854;4.354;2023-04-25T03:46:26;9.20;99.90
14411;DHT22;7290;50.854;4.354;2023-04-25T03:48:52;9.30;99.90
14411;DHT22;7290;50.854;4.354;2023-04-25T03:51:18;9.20;99.90
14411;DHT22;7290;50.854;4.354;2023-04-25T03:53:44;9.20;99.90
14411;DHT22;7290;50.854;4.354;2023-04-25T03:56:11;9.00;99.90
14411;DHT22;7290;50.854;4.354;2023-04-25T03:58:37;9.10;99.90
14411;DHT22;7290;50.854;4.354;2023-04-25T04:01:03;9.10;99.90
14411;DHT22;7290;50.854;4.354;2023-04-25T04:03:33;9.10;99.90
14411;DHT22;7290;50.854;4.354;2023-04-25T04:05:59;9.10;99.90
14411;DHT22;7290;50.854;4.354;2023-04-25T04:08:25;9.20;99.90
14411;DHT22;7290;50.854;4.354;2023-04-25T04:10:51;9.30;99.90
14411;DHT22;7290;50.854;4.354;2023-04-25T04:13:17;9.30;99.90
14411;DHT22;7290;50.854;4.354;2023-04-25T04:15:44;9.30;99.90
14411;DHT22;7290;50.854;4.354;2023-04-25T04:18:10;9.30;99.90
14411;DHT22;7290;50.854;4.354;2023-04-25T04:20:36;9.30;99.90
14411;DHT22;7290;50.854;4.354;2023-04-25T04:23:02;9.30;99.90
14411;DHT22;7290;50.854;4.354;2023-04-25T04:25:28;9.30;99.90
14411;DHT22;7290;50.854;4.354;2023-04-25T04:27:55;9.30;99.90
14411;DHT22;7290;50.854;4.354;2023-04-25T04:30:23;9.30;99.90
14411;DHT22;7290;50.854;4.354;2023-04-25T04:32:50;9.40;99.90
14411;DHT22;7290;50.854;4.354;2023-04-25T04:35:16;9.40;99.90
14411;DHT22;7290;50.854;4.354;2023-04-25T04:37:42;9.40;99.90
14411;DHT22;7290;50.854;4.354;2023-04-25T04:40:09;9.50;99.90
14411;DHT22;7290;50.854;4.354;2023-04-25T04:42:36;9.50;99.90
14411;DHT22;7290;50.854;4.354;2023-04-25T04:45:02;9.60;99.90
14411;DHT22;7290;50.854;4.354;2023-04-25T04:47:30;9.40;99.90
14411;DHT22;7290;50.854;4.354;2023-04-25T04:49:56;9.30;99.90
14411;DHT22;7290;50.854;4.354;2023-04-25T04:52:22;9.20;99.90
14411;DHT22;7290;50.854;4.354;2023-04-25T04:54:48;9.00;99.90
14411;DHT22;7290;50.854;4.354;2023-04-25T04:57:14;9.00;99.90
14411;DHT22;7290;50.854;4.354;2023-04-25T04:59:41;8.90;99.90
14411;DHT22;7290;50.854;4.354;2023-04-25T05:02:08;8.80;99.90
14411;DHT22;7290;50.854;4.354;2023-04-25T05:04:34;8.90;99.90
14411;DHT22;7290;50.854;4.354;2023-04-25T05:07:00;9.00;99.90
14411;DHT22;7290;50.854;4.354;2023-04-25T05:09:27;8.90;99.90
14411;DHT22;7290;50.854;4.354;2023-04-25T05:11:53;8.90;99.90
14411;DHT22;7290;50.854;4.354;2023-04-25T05:14:19;8.80;99.90
14411;DHT22;7290;50.854;4.354;2023-04-25T05:16:45;8.80;99.90
14411;DHT22;7290;50.854;4.354;2023-04-25T05:19:11;8.90;99.90
14411;DHT22;7290;50.854;4.354;2023-04-25T05:21:37;9.10;99.90
14411;DHT22;7290;50.854;4.354;2023-04-25T05:24:04;9.10;99.90
14411;DHT22;7290;50.854;4.354;2023-04-25T05:26:30;9.30;99.90
14411;DHT22;7290;50.854;4.354;2023-04-25T05:28:56;9.40;99.90
14411;DHT22;7290;50.854;4.354;2023-04-25T05:31:22;9.40;99.90
14411;DHT22;7290;50.854;4.354;2023-04-25T05:33:48;9.50;99.90
14411;DHT22;7290;50.854;4.354;2023-04-25T05:36:15;9.60;99.90
14411;DHT22;7290;50.854;4.354;2023-04-25T05:38:41;9.70;99.90
14411;DHT22;7290;50.854;4.354;2023-04-25T05:41:08;9.80;99.90
14411;DHT22;7290;50.854;4.354;2023-04-25T05:43:34;9.70;99.90
14411;DHT22;7290;50.854;4.354;2023-04-25T05:46:00;9.30;99.90
14411;DHT22;7290;50.854;4.354;2023-04-25T05:48:26;9.50;99.90
14411;DHT22;7290;50.854;4.354;2023-04-25T05:50:52;9.70;99.90
14411;DHT22;7290;50.854;4.354;2023-04-25T05:53:18;9.70;99.90
14411;DHT22;7290;50.854;4.354;2023-04-25T05:55:46;9.80;99.90
14411;DHT22;7290;50.854;4.354;2023-04-25T05:58:12;9.60;99.90
14411;DHT22;7290;50.854;4.354;2023-04-25T06:00:38;9.60;99.90
14411;DHT22;7290;50.854;4.354;2023-04-25T06:03:07;9.50;99.90
14411;DHT22;7290;50.854;4.354;2023-04-25T06:05:35;9.60;99.90
14411;DHT22;7290;50.854;4.354;2023-04-25T06:08:01;9.50;99.90
14411;DHT22;7290;50.854;4.354;2023-04-25T06:10:27;9.70;99.90
14411;DHT22;7290;50.854;4.354;2023-04-25T06:12:53;9.70;99.90
14411;DHT22;7290;50.854;4.354;2023-04-25T06:15:20;9.90;99.90
14411;DHT22;7290;50.854;4.354;2023-04-25T06:17:46;10.00;99.90
14411;DHT22;7290;50.854;4.354;2023-04-25T06:20:12;10.00;99.90
14411;DHT22;7290;50.854;4.354;2023-04-25T06:22:38;10.20;99.90
14411;DHT22;7290;50.854;4.354;2023-04-25T06:25:05;10.00;99.90
14411;DHT22;7290;50.854;4.354;2023-04-25T06:27:32;9.90;99.90
14411;DHT22;7290;50.854;4.354;2023-04-25T06:29:59;10.10;99.90
14411;DHT22;7290;50.854;4.354;2023-04-25T06:32:25;10.10;99.90
14411;DHT22;7290;50.854;4.354;2023-04-25T06:34:53;10.10;99.90
14411;DHT22;7290;50.854;4.354;2023-04-25T06:37:19;10.10;99.90
14411;DHT22;7290;50.854;4.354;2023-04-25T06:39:45;10.10;99.90
14411;DHT22;7290;50.854;4.354;2023-04-25T06:42:11;9.90;99.90
14411;DHT22;7290;50.854;4.354;2023-04-25T06:44:37;9.90;99.90
14411;DHT22;7290;50.854;4.354;2023-04-25T06:47:04;9.90;99.90
14411;DHT22;7290;50.854;4.354;2023-04-25T06:49:30;10.00;99.90
14411;DHT22;7290;50.854;4.354;2023-04-25T06:51:56;10.00;99.90
14411;DHT22;7290;50.854;4.354;2023-04-25T06:54:22;10.30;99.90
14411;DHT22;7290;50.854;4.354;2023-04-25T06:56:50;10.20;99.90
14411;DHT22;7290;50.854;4.354;2023-04-25T06:59:16;10.10;99.90
14411;DHT22;7290;50.854;4.354;2023-04-25T07:01:42;10.00;99.90
14411;DHT22;7290;50.854;4.354;2023-04-25T07:04:09;9.90;99.90
14411;DHT22;7290;50.854;4.354;2023-04-25T07:06:35;9.80;99.90
14411;DHT22;7290;50.854;4.354;2023-04-25T07:09:03;9.80;99.90
14411;DHT22;7290;50.854;4.354;2023-04-25T07:11:30;9.90;99.90
14411;DHT22;7290;50.854;4.354;2023-04-25T07:13:56;10.10;99.90
14411;DHT22;7290;50.854;4.354;2023-04-25T07:16:22;10.30;99.90
14411;DHT22;7290;50.854;4.354;2023-04-25T07:18:48;10.20;99.90
14411;DHT22;7290;50.854;4.354;2023-04-25T07:21:14;10.20;99.90
14411;DHT22;7290;50.854;4.354;2023-04-25T07:23:40;10.40;99.90
14411;DHT22;7290;50.854;4.354;2023-04-25T07:26:06;10.50;99.90
14411;DHT22;7290;50.854;4.354;2023-04-25T07:28:33;10.40;99.90
14411;DHT22;7290;50.854;4.354;2023-04-25T07:30:59;10.40;99.90
14411;DHT22;7290;50.854;4.354;2023-04-25T07:33:25;10.50;99.90
14411;DHT22;7290;50.854;4.354;2023-04-25T07:35:52;10.60;99.90
14411;DHT22;7290;50.854;4.354;2023-04-25T07:38:19;10.70;99.90
14411;DHT22;7290;50.854;4.354;2023-04-25T07:40:46;10.70;99.90
14411;DHT22;7290;50.854;4.354;2023-04-25T07:43:12;10.70;99.90
14411;DHT22;7290;50.854;4.354;2023-04-25T07:45:41;10.50;99.90
14411;DHT22;7290;50.854;4.354;2023-04-25T07:48:08;10.50;99.90
14411;DHT22;7290;50.854;4.354;2023-04-25T07:50:34;10.50;99.90
14411;DHT22;7290;50.854;4.354;2023-04-25T07:53:00;10.50;99.90
14411;DHT22;7290;50.854;4.354;2023-04-25T07:55:27;10.70;99.90
14411;DHT22;7290;50.854;4.354;2023-04-25T07:57:53;10.90;99.90
14411;DHT22;7290;50.854;4.354;2023-04-25T08:00:19;11.20;99.90
14411;DHT22;7290;50.854;4.354;2023-04-25T08:02:45;11.10;99.90
14411;DHT22;7290;50.854;4.354;2023-04-25T08:05:12;11.10;99.90
14411;DHT22;7290;50.854;4.354;2023-04-25T08:07:39;11.30;99.90
14411;DHT22;7290;50.854;4.354;2023-04-25T08:10:07;11.30;99.90
14411;DHT22;7290;50.854;4.354;2023-04-25T08:12:34;11.40;99.90
14411;DHT22;7290;50.854;4.354;2023-04-25T08:15:00;11.50;99.90
14411;DHT22;7290;50.854;4.354;2023-04-25T08:17:26;11.60;99.90
14411;DHT22;7290;50.854;4.354;2023-04-25T08:19:52;11.80;99.90
14411;DHT22;7290;50.854;4.354;2023-04-25T08:22:19;11.70;99.90
14411;DHT22;7290;50.854;4.354;2023-04-25T08:24:45;11.70;99.90
14411;DHT22;7290;50.854;4.354;2023-04-25T08:27:11;12.30;99.90
14411;DHT22;7290;50.854;4.354;2023-04-25T08:29:38;12.80;99.90
14411;DHT22;7290;50.854;4.354;2023-04-25T08:32:04;13.20;99.90
14411;DHT22;7290;50.854;4.354;2023-04-25T08:34:30;13.30;99.90
14411;DHT22;7290;50.854;4.354;2023-04-25T08:36:57;13.70;99.90
14411;DHT22;7290;50.854;4.354;2023-04-25T08:39:24;14.20;99.90
14411;DHT22;7290;50.854;4.354;2023-04-25T08:41:50;14.70;99.90
14411;DHT22;7290;50.854;4.354;2023-04-25T08:44:18;15.00;99.90
14411;DHT22;7290;50.854;4.354;2023-04-25T08:46:47;16.60;99.90
14411;DHT22;7290;50.854;4.354;2023-04-25T08:49:16;18.30;97.50
14411;DHT22;7290;50.854;4.354;2023-04-25T08:51:45;20.50;94.10
14411;DHT22;7290;50.854;4.354;2023-04-25T08:54:13;20.50;93.60
14411;DHT22;7290;50.854;4.354;2023-04-25T08:56:41;21.90;91.50
14411;DHT22;7290;50.854;4.354;2023-04-25T08:59:09;20.30;92.30
14411;DHT22;7290;50.854;4.354;2023-04-25T09:01:36;18.90;93.40
14411;DHT22;7290;50.854;4.354;2023-04-25T09:04:03;16.80;95.70
14411;DHT22;7290;50.854;4.354;2023-04-25T09:06:29;15.50;97.60
14411;DHT22;7290;50.854;4.354;2023-04-25T09:09:02;15.20;98.40
14411;DHT22;7290;50.854;4.354;2023-04-25T09:11:29;14.70;98.90
14411;DHT22;7290;50.854;4.354;2023-04-25T09:14:10;14.40;99.20
14411;DHT22;7290;50.854;4.354;2023-04-25T09:16:57;14.30;99.30
14411;DHT22;7290;50.854;4.354;2023-04-25T09:19:27;14.00;99.20
14411;DHT22;7290;50.854;4.354;2023-04-25T09:21:54;13.40;99.90
14411;DHT22;7290;50.854;4.354;2023-04-25T09:24:30;13.00;99.90
14411;DHT22;7290;50.854;4.354;2023-04-25T09:26:57;12.60;99.90
14411;DHT22;7290;50.854;4.354;2023-04-25T09:29:29;12.50;99.90
14411;DHT22;7290;50.854;4.354;2023-04-25T09:32:17;11.90;99.90
14411;DHT22;7290;50.854;4.354;2023-04-25T09:34:46;11.60;99.90
14411;DHT22;7290;50.854;4.354;2023-04-25T09:37:17;12.10;99.90
14411;DHT22;7290;50.854;4.354;2023-04-25T09:39:45;12.80;99.90
14411;DHT22;7290;50.854;4.354;2023-04-25T09:42:11;14.00;99.90
14411;DHT22;7290;50.854;4.354;2023-04-25T09:44:42;14.00;99.90
14411;DHT22;7290;50.854;4.354;2023-04-25T09:47:09;15.30;99.90
14411;DHT22;7290;50.854;4.354;2023-04-25T09:49:39;18.00;98.30
14411;DHT22;7290;50.854;4.354;2023-04-25T09:52:07;19.60;95.50
14411;DHT22;7290;50.854;4.354;2023-04-25T09:54:33;21.50;93.20
14411;DHT22;7290;50.854;4.354;2023-04-25T09:57:04;23.00;90.80
14411;DHT22;7290;50.854;4.354;2023-04-25T09:59:34;24.10;86.50
14411;DHT22;7290;50.854;4.354;2023-04-25T10:02:04;26.10;78.10
14411;DHT22;7290;50.854;4.354;2023-04-25T10:04:34;25.70;74.00
14411;DHT22;7290;50.854;4.354;2023-04-25T10:07:02;24.80;72.70
14411;DHT22;7290;50.854;4.354;2023-04-25T10:09:32;24.70;73.60
14411;DHT22;7290;50.854;4.354;2023-04-25T10:11:59;23.50;73.80
14411;DHT22;7290;50.854;4.354;2023-04-25T10:14:26;21.00;78.60
14411;DHT22;7290;50.854;4.354;2023-04-25T10:16:53;19.40;81.80
14411;DHT22;7290;50.854;4.354;2023-04-25T10:19:20;19.70;82.10
14411;DHT22;7290;50.854;4.354;2023-04-25T10:21:51;20.70;80.60
14411;DHT22;7290;50.854;4.354;2023-04-25T10:24:18;22.70;76.20
14411;DHT22;7290;50.854;4.354;2023-04-25T10:26:46;22.80;74.60
14411;DHT22;7290;50.854;4.354;2023-04-25T10:29:12;22.20;73.50
14411;DHT22;7290;50.854;4.354;2023-04-25T10:31:46;22.50;75.00
14411;DHT22;7290;50.854;4.354;2023-04-25T10:34:13;22.50;74.50
14411;DHT22;7290;50.854;4.354;2023-04-25T10:36:39;21.40;76.40
14411;DHT22;7290;50.854;4.354;2023-04-25T10:39:06;19.60;80.10
14411;DHT22;7290;50.854;4.354;2023-04-25T10:41:46;18.70;82.80
14411;DHT22;7290;50.854;4.354;2023-04-25T10:44:13;18.30;83.40
14411;DHT22;7290;50.854;4.354;2023-04-25T10:46:40;16.90;83.60
14411;DHT22;7290;50.854;4.354;2023-04-25T10:49:08;16.60;85.90
14411;DHT22;7290;50.854;4.354;2023-04-25T10:51:36;16.50;87.40
14411;DHT22;7290;50.854;4.354;2023-04-25T10:54:04;15.60;89.40
14411;DHT22;7290;50.854;4.354;2023-04-25T10:56:31;14.90;90.60
14411;DHT22;7290;50.854;4.354;2023-04-25T10:59:09;14.50;91.50
14411;DHT22;7290;50.854;4.354;2023-04-25T11:01:38;14.50;92.50
14411;DHT22;7290;50.854;4.354;2023-04-25T11:04:04;14.40;92.80
14411;DHT22;7290;50.854;4.354;2023-04-25T11:06:37;14.10;93.90
14411;DHT22;7290;50.854;4.354;2023-04-25T11:09:10;13.60;97.40
14411;DHT22;7290;50.854;4.354;2023-04-25T11:11:38;13.50;99.30
14411;DHT22;7290;50.854;4.354;2023-04-25T11:14:04;13.10;99.90
14411;DHT22;7290;50.854;4.354;2023-04-25T11:16:31;13.00;99.90
14411;DHT22;7290;50.854;4.354;2023-04-25T11:18:58;13.50;99.90
14411;DHT22;7290;50.854;4.354;2023-04-25T11:21:25;14.80;98.20
14411;DHT22;7290;50.854;4.354;2023-04-25T11:23:53;15.10;96.00
14411;DHT22;7290;50.854;4.354;2023-04-25T11:26:20;14.40;96.50
14411;DHT22;7290;50.854;4.354;2023-04-25T11:28:46;14.60;97.50
14411;DHT22;7290;50.854;4.354;2023-04-25T11:31:12;14.20;98.10
14411;DHT22;7290;50.854;4.354;2023-04-25T11:33:39;14.30;98.50
14411;DHT22;7290;50.854;4.354;2023-04-25T11:36:07;14.00;98.80
14411;DHT22;7290;50.854;4.354;2023-04-25T11:38:33;14.20;98.50
14411;DHT22;7290;50.854;4.354;2023-04-25T11:40:59;14.00;97.60
14411;DHT22;7290;50.854;4.354;2023-04-25T11:43:26;14.00;97.80
14411;DHT22;7290;50.854;4.354;2023-04-25T11:45:52;14.40;96.90
14411;DHT22;7290;50.854;4.354;2023-04-25T11:48:18;14.30;96.40
14411;DHT22;7290;50.854;4.354;2023-04-25T11:50:46;14.40;95.50
14411;DHT22;7290;50.854;4.354;2023-04-25T11:53:12;14.10;95.20
14411;DHT22;7290;50.854;4.354;2023-04-25T11:55:38;14.00;95.60
14411;DHT22;7290;50.854;4.354;2023-04-25T11:58:05;14.90;94.50
14411;DHT22;7290;50.854;4.354;2023-04-25T12:00:32;15.50;94.20
14411;DHT22;7290;50.854;4.354;2023-04-25T12:02:58;16.00;93.50
14411;DHT22;7290;50.854;4.354;2023-04-25T12:05:26;16.10;92.80
14411;DHT22;7290;50.854;4.354;2023-04-25T12:07:52;16.00;93.10
14411;DHT22;7290;50.854;4.354;2023-04-25T12:10:19;16.10;93.20
14411;DHT22;7290;50.854;4.354;2023-04-25T12:12:47;15.80;93.80
14411;DHT22;7290;50.854;4.354;2023-04-25T12:15:15;15.60;94.50
14411;DHT22;7290;50.854;4.354;2023-04-25T12:17:45;15.30;94.20
14411;DHT22;7290;50.854;4.354;2023-04-25T12:20:13;15.80;94.40
14411;DHT22;7290;50.854;4.354;2023-04-25T12:22:41;15.30;93.30
14411;DHT22;7290;50.854;4.354;2023-04-25T12:25:10;15.20;93.80
14411;DHT22;7290;50.854;4.354;2023-04-25T12:27:36;14.50;94.30
14411;DHT22;7290;50.854;4.354;2023-04-25T12:30:04;14.00;95.10
14411;DHT22;7290;50.854;4.354;2023-04-25T12:32:30;13.50;95.40
14411;DHT22;7290;50.854;4.354;2023-04-25T12:34:56;13.80;95.40
14411;DHT22;7290;50.854;4.354;2023-04-25T12:37:22;13.60;94.50
14411;DHT22;7290;50.854;4.354;2023-04-25T12:39:48;13.80;94.30
14411;DHT22;7290;50.854;4.354;2023-04-25T12:42:15;14.30;93.50
14411;DHT22;7290;50.854;4.354;2023-04-25T12:44:41;14.10;93.00
14411;DHT22;7290;50.854;4.354;2023-04-25T12:47:07;14.20;93.20
14411;DHT22;7290;50.854;4.354;2023-04-25T12:49:33;14.40;93.40
14411;DHT22;7290;50.854;4.354;2023-04-25T12:52:00;14.80;94.00
14411;DHT22;7290;50.854;4.354;2023-04-25T12:54:26;14.70;94.50
14411;DHT22;7290;50.854;4.354;2023-04-25T12:56:52;14.20;94.00
14411;DHT22;7290;50.854;4.354;2023-04-25T12:59:19;14.20;94.30
14411;DHT22;7290;50.854;4.354;2023-04-25T13:01:46;13.80;95.20
14411;DHT22;7290;50.854;4.354;2023-04-25T13:04:12;13.80;96.30
14411;DHT22;7290;50.854;4.354;2023-04-25T13:06:38;13.80;96.60
14411;DHT22;7290;50.854;4.354;2023-04-25T13:09:04;13.90;96.20
14411;DHT22;7290;50.854;4.354;2023-04-25T13:11:32;13.70;96.30
14411;DHT22;7290;50.854;4.354;2023-04-25T13:13:58;13.70;95.90
14411;DHT22;7290;50.854;4.354;2023-04-25T13:16:24;13.70;96.30
14411;DHT22;7290;50.854;4.354;2023-04-25T13:18:50;14.00;95.90
14411;DHT22;7290;50.854;4.354;2023-04-25T13:21:16;14.40;95.20
14411;DHT22;7290;50.854;4.354;2023-04-25T13:23:42;14.10;95.10
14411;DHT22;7290;50.854;4.354;2023-04-25T13:26:10;14.00;95.30
14411;DHT22;7290;50.854;4.354;2023-04-25T13:28:36;14.00;95.20
14411;DHT22;7290;50.854;4.354;2023-04-25T13:31:02;14.20;94.70
14411;DHT22;7290;50.854;4.354;2023-04-25T13:33:29;13.80;94.10
14411;DHT22;7290;50.854;4.354;2023-04-25T13:35:55;13.80;94.40
14411;DHT22;7290;50.854;4.354;2023-04-25T13:38:23;14.00;94.30
14411;DHT22;7290;50.854;4.354;2023-04-25T13:40:50;14.20;94.10
14411;DHT22;7290;50.854;4.354;2023-04-25T13:43:19;14.10;93.90
14411;DHT22;7290;50.854;4.354;2023-04-25T13:45:45;14.30;93.80
14411;DHT22;7290;50.854;4.354;2023-04-25T13:48:11;14.30;93.50
14411;DHT22;7290;50.854;4.354;2023-04-25T13:50:38;14.10;93.00
14411;DHT22;7290;50.854;4.354;2023-04-25T13:53:04;13.90;93.20
14411;DHT22;7290;50.854;4.354;2023-04-25T13:55:31;13.50;95.90
14411;DHT22;7290;50.854;4.354;2023-04-25T13:57:57;13.30;96.90
14411;DHT22;7290;50.854;4.354;2023-04-25T14:00:23;13.10;97.60
14411;DHT22;7290;50.854;4.354;2023-04-25T14:02:49;12.90;97.90
14411;DHT22;7290;50.854;4.354;2023-04-25T14:05:16;13.00;97.80
14411;DHT22;7290;50.854;4.354;2023-04-25T14:07:43;12.70;97.60
14411;DHT22;7290;50.854;4.354;2023-04-25T14:10:09;12.70;97.30
14411;DHT22;7290;50.854;4.354;2023-04-25T14:12:35;13.10;96.90
14411;DHT22;7290;50.854;4.354;2023-04-25T14:15:02;13.30;96.60
14411;DHT22;7290;50.854;4.354;2023-04-25T14:17:28;13.00;96.30
14411;DHT22;7290;50.854;4.354;2023-04-25T14:19:54;13.30;96.30
14411;DHT22;7290;50.854;4.354;2023-04-25T14:22:20;13.20;95.80
14411;DHT22;7290;50.854;4.354;2023-04-25T14:24:47;13.20;95.10
14411;DHT22;7290;50.854;4.354;2023-04-25T14:27:13;13.20;95.40
14411;DHT22;7290;50.854;4.354;2023-04-25T14:29:39;13.30;95.50
14411;DHT22;7290;50.854;4.354;2023-04-25T14:32:05;13.30;95.70
14411;DHT22;7290;50.854;4.354;2023-04-25T14:34:32;13.40;94.90
14411;DHT22;7290;50.854;4.354;2023-04-25T14:36:58;13.40;94.50
14411;DHT22;7290;50.854;4.354;2023-04-25T14:39:24;13.40;94.20
14411;DHT22;7290;50.854;4.354;2023-04-25T14:41:51;13.50;94.00
14411;DHT22;7290;50.854;4.354;2023-04-25T14:44:17;13.40;94.00
14411;DHT22;7290;50.854;4.354;2023-04-25T14:46:43;13.60;94.70
14411;DHT22;7290;50.854;4.354;2023-04-25T14:49:09;13.70;95.40
14411;DHT22;7290;50.854;4.354;2023-04-25T14:51:35;13.60;95.60
14411;DHT22;7290;50.854;4.354;2023-04-25T14:54:01;13.60;95.60
14411;DHT22;7290;50.854;4.354;2023-04-25T14:56:28;13.50;95.70
14411;DHT22;7290;50.854;4.354;2023-04-25T14:58:54;13.70;95.70
14411;DHT22;7290;50.854;4.354;2023-04-25T15:01:21;13.60;94.80
14411;DHT22;7290;50.854;4.354;2023-04-25T15:03:47;13.60;94.90
14411;DHT22;7290;50.854;4.354;2023-04-25T15:06:14;13.70;95.00
14411;DHT22;7290;50.854;4.354;2023-04-25T15:08:40;13.50;95.50
14411;DHT22;7290;50.854;4.354;2023-04-25T15:11:06;13.30;96.10
14411;DHT22;7290;50.854;4.354;2023-04-25T15:13:32;13.30;96.00
14411;DHT22;7290;50.854;4.354;2023-04-25T15:16:00;13.60;95.80
14411;DHT22;7290;50.854;4.354;2023-04-25T15:18:26;13.80;95.50
14411;DHT22;7290;50.854;4.354;2023-04-25T15:20:53;13.90;95.30
14411;DHT22;7290;50.854;4.354;2023-04-25T15:23:20;13.30;95.30
14411;DHT22;7290;50.854;4.354;2023-04-25T15:25:47;13.10;95.30
14411;DHT22;7290;50.854;4.354;2023-04-25T15:28:13;12.90;95.20
14411;DHT22;7290;50.854;4.354;2023-04-25T15:30:41;12.80;95.00
14411;DHT22;7290;50.854;4.354;2023-04-25T15:33:07;12.80;95.10
14411;DHT22;7290;50.854;4.354;2023-04-25T15:35:33;12.90;95.00
14411;DHT22;7290;50.854;4.354;2023-04-25T15:38:00;13.10;95.00
14411;DHT22;7290;50.854;4.354;2023-04-25T15:40:26;13.20;94.90
14411;DHT22;7290;50.854;4.354;2023-04-25T15:42:52;13.10;95.30
14411;DHT22;7290;50.854;4.354;2023-04-25T15:45:21;13.20;95.60
14411;DHT22;7290;50.854;4.354;2023-04-25T15:47:49;13.10;96.10